CDT,Max TemperatureF,Mean TemperatureF,Min TemperatureF,Max Dew PointF,MeanDew PointF,Min DewpointF,Max Humidity, Mean Humidity, Min Humidity, Max Sea Level PressureIn, Mean Sea Level PressureIn, Min Sea Level PressureIn, Max VisibilityMiles, Mean VisibilityMiles, Min VisibilityMiles, Max Wind SpeedMPH, Mean Wind SpeedMPH, Max Gust SpeedMPH,PrecipitationIn, CloudCover, Events, WindDirDegrees
2013-3-1,30,28,25,25,23,19,92,81,69,30.26,30.15,30.08,10,5,1,18,11,20,0.01,8,Snow,352
2013-3-2,30,23,15,21,16,9,88,71,53,30.30,30.26,30.23,10,10,6,18,8,21,T,3,,319
2013-3-3,32,22,11,20,15,8,88,71,54,30.23,30.13,30.02,10,10,5,13,5,17,0.00,6,,142
2013-3-4,40,35,30,29,27,22,85,72,59,30.03,29.89,29.80,10,10,3,18,14,24,0.01,4,Rain-Snow,106
2013-3-5,34,32,29,30,26,19,92,78,63,30.18,29.95,29.85,10,5,1,33,19,40,0.11,8,Rain-Snow,314
2013-3-6,30,25,19,21,19,15,84,74,63,30.40,30.35,30.21,10,10,10,26,12,31,0.00,5,,336
2013-3-7,36,26,16,27,20,12,92,76,59,30.44,30.38,30.34,10,10,7,14,6,20,0.00,1,,104
2013-3-8,43,35,26,31,28,22,92,77,62,30.40,30.32,30.16,10,9,6,16,11,21,0.00,1,,131
2013-3-9,52,44,36,40,35,30,92,79,66,30.15,29.97,29.74,10,6,1,18,11,23,1.06,8,Rain,143
2013-3-10,50,44,37,48,45,35,100,95,89,29.76,29.67,29.54,10,4,0,24,8,30,0.78,8,Fog-Rain,189
2013-3-11,37,33,29,35,28,21,100,83,66,29.97,29.78,29.69,10,7,2,20,14,28,T,8,Rain,266
2013-3-12,40,32,24,27,23,19,88,74,59,30.22,30.10,29.99,10,9,4,28,14,37,T,4,Snow,283
2013-3-13,37,30,23,21,18,15,75,60,44,30.45,30.36,30.21,10,10,2,25,11,31,0.00,2,Snow,302
2013-3-14,54,40,26,38,26,19,76,61,46,30.38,30.20,30.08,10,10,10,18,7,24,T,3,,168
2013-3-15,66,49,32,47,37,28,86,65,43,30.05,29.85,29.64,10,10,10,13,5,16,0.00,0,,145
2013-3-16,45,39,33,41,33,30,92,81,70,30.09,29.93,29.63,10,6,2,20,11,23,0.00,7,,352
2013-3-17,38,35,31,34,28,23,89,77,64,30.14,30.01,29.82,10,9,2,18,13,22,0.06,7,Rain-Snow,70
2013-3-18,48,39,29,34,30,17,100,73,45,30.02,29.78,29.70,10,6,2,30,13,40,0.02,6,Rain,309
2013-3-19,43,34,24,19,14,11,68,48,27,30.22,30.14,29.99,10,10,10,22,11,26,0.00,0,,281
2013-3-20,32,25,18,21,11,6,69,53,36,30.31,30.23,30.15,10,10,10,26,15,32,0.00,3,,321
2013-3-21,36,25,14,16,11,8,74,55,35,30.15,30.08,30.00,10,10,10,13,4,15,0.00,0,,45
2013-3-22,39,30,20,24,18,15,84,64,44,30.07,30.05,30.01,10,10,10,12,4,14,0.00,6,,96
2013-3-23,50,42,33,31,26,19,75,56,36,30.08,29.99,29.91,10,8,2,20,9,29,0.04,7,Rain-Snow,47
2013-3-24,32,31,29,31,27,27,92,89,85,29.94,29.79,29.70,7,1,0,25,19,30,0.26,8,Fog-Rain-Snow,359
2013-3-25,33,30,26,27,25,21,92,78,63,30.21,29.97,29.85,10,5,1,21,14,25,0.07,7,Snow,315
2013-3-26,37,31,25,24,22,20,81,67,52,30.36,30.30,30.22,10,10,10,18,9,22,0.00,3,,291
2013-3-27,41,32,22,25,22,19,81,64,46,30.40,30.36,30.32,10,10,10,8,3,14,0.00,1,,149
2013-3-28,50,40,30,33,27,22,72,59,46,30.37,30.32,30.26,10,10,10,14,8,17,0.00,2,,117
2013-3-29,59,46,33,40,35,28,82,61,40,30.28,30.24,30.20,10,10,7,10,6,15,0.00,0,,93
2013-3-30,53,45,37,44,40,33,93,76,59,30.20,30.04,29.91,10,8,2,23,9,30,0.00,4,,172
2013-3-31,62,51,40,46,42,29,100,71,42,29.99,29.89,29.86,10,6,0,23,12,29,0.00,5,Fog,291